sensor_id;sensor_type;location;lat;lon;timestamp;temperature;humidity
24250;DHT22;12379;49.820;8.648;2023-03-31T00:01:33;11.90;99.90
24250;DHT22;12379;49.820;8.648;2023-03-31T00:03:58;11.90;99.90
24250;DHT22;12379;49.820;8.648;2023-03-31T00:06:32;12.00;99.90
24250;DHT22;12379;49.820;8.648;2023-03-31T00:09:04;12.10;99.90
24250;DHT22;12379;49.820;8.648;2023-03-31T00:11:30;12.20;99.90
24250;DHT22;12379;49.820;8.648;2023-03-31T00:13:55;12.20;99.90
24250;DHT22;12379;49.820;8.648;2023-03-31T00:16:21;12.20;99.90
24250;DHT22;12379;49.820;8.648;2023-03-31T00:18:46;12.20;99.90
24250;DHT22;12379;49.820;8.648;2023-03-31T00:21:17;12.30;99.90
24250;DHT22;12379;49.820;8.648;2023-03-31T00:24:03;12.20;99.90
24250;DHT22;12379;49.820;8.648;2023-03-31T00:26:29;12.10;99.90
24250;DHT22;12379;49.820;8.648;2023-03-31T00:28:56;12.20;99.90
24250;DHT22;12379;49.820;8.648;2023-03-31T00:31:23;12.10;99.90
24250;DHT22;12379;49.820;8.648;2023-03-31T00:33:49;12.10;99.90
24250;DHT22;12379;49.820;8.648;2023-03-31T00:36:15;12.10;99.90
24250;DHT22;12379;49.820;8.648;2023-03-31T00:38:46;12.10;99.90
24250;DHT22;12379;49.820;8.648;2023-03-31T00:41:14;12.10;99.90
24250;DHT22;12379;49.820;8.648;2023-03-31T00:43:40;12.10;99.90
24250;DHT22;12379;49.820;8.648;2023-03-31T00:48:33;12.30;99.90
24250;DHT22;12379;49.820;8.648;2023-03-31T00:51:03;12.30;99.90
24250;DHT22;12379;49.820;8.648;2023-03-31T00:53:32;12.30;99.90
24250;DHT22;12379;49.820;8.648;2023-03-31T00:56:06;12.30;99.90
24250;DHT22;12379;49.820;8.648;2023-03-31T00:58:33;12.30;99.90
24250;DHT22;12379;49.820;8.648;2023-03-31T01:01:00;12.40;99.90
24250;DHT22;12379;49.820;8.648;2023-03-31T01:03:29;12.40;99.90
24250;DHT22;12379;49.820;8.648;2023-03-31T01:06:01;12.50;99.90
24250;DHT22;12379;49.820;8.648;2023-03-31T01:08:31;12.50;99.90
24250;DHT22;12379;49.820;8.648;2023-03-31T01:10:59;12.40;99.90
24250;DHT22;12379;49.820;8.648;2023-03-31T01:13:26;12.40;99.90
24250;DHT22;12379;49.820;8.648;2023-03-31T01:15:53;12.50;99.90
24250;DHT22;12379;49.820;8.648;2023-03-31T01:18:19;12.60;99.90
24250;DHT22;12379;49.820;8.648;2023-03-31T01:23:57;12.50;99.90
24250;DHT22;12379;49.820;8.648;2023-03-31T01:40:23;12.50;99.90
24250;DHT22;12379;49.820;8.648;2023-03-31T01:48:34;12.60;99.90
24250;DHT22;12379;49.820;8.648;2023-03-31T01:51:34;12.60;99.90
24250;DHT22;12379;49.820;8.648;2023-03-31T01:54:22;12.50;99.90
24250;DHT22;12379;49.820;8.648;2023-03-31T01:57:00;12.40;99.90
24250;DHT22;12379;49.820;8.648;2023-03-31T01:59:41;12.50;99.90
24250;DHT22;12379;49.820;8.648;2023-03-31T02:02:12;12.40;99.90
24250;DHT22;12379;49.820;8.648;2023-03-31T02:04:46;12.30;99.90
24250;DHT22;12379;49.820;8.648;2023-03-31T02:07:20;12.20;99.90
24250;DHT22;12379;49.820;8.648;2023-03-31T02:09:52;12.30;99.90
24250;DHT22;12379;49.820;8.648;2023-03-31T02:12:21;12.50;99.90
24250;DHT22;12379;49.820;8.648;2023-03-31T02:14:51;12.40;99.90
24250;DHT22;12379;49.820;8.648;2023-03-31T02:17:21;12.40;99.90
24250;DHT22;12379;49.820;8.648;2023-03-31T02:19:56;12.40;99.90
24250;DHT22;12379;49.820;8.648;2023-03-31T02:22:24;12.40;99.90
24250;DHT22;12379;49.820;8.648;2023-03-31T02:24:52;12.30;99.90
24250;DHT22;12379;49.820;8.648;2023-03-31T02:27:27;12.30;99.90
24250;DHT22;12379;49.820;8.648;2023-03-31T02:29:54;12.30;99.90
24250;DHT22;12379;49.820;8.648;2023-03-31T02:32:41;12.40;99.90
24250;DHT22;12379;49.820;8.648;2023-03-31T02:35:10;12.40;99.90
24250;DHT22;12379;49.820;8.648;2023-03-31T02:37:37;12.40;99.90
24250;DHT22;12379;49.820;8.648;2023-03-31T02:40:08;12.40;99.90
24250;DHT22;12379;49.820;8.648;2023-03-31T02:42:36;12.40;99.90
24250;DHT22;12379;49.820;8.648;2023-03-31T02:45:34;12.40;99.90
24250;DHT22;12379;49.820;8.648;2023-03-31T02:47:53;12.30;99.90
24250;DHT22;12379;49.820;8.648;2023-03-31T02:50:23;12.20;99.90
24250;DHT22;12379;49.820;8.648;2023-03-31T02:53:03;12.00;99.90
24250;DHT22;12379;49.820;8.648;2023-03-31T02:58:31;11.80;99.90
24250;DHT22;12379;49.820;8.648;2023-03-31T03:01:26;11.80;99.90
24250;DHT22;12379;49.820;8.648;2023-03-31T03:04:36;11.70;99.90
24250;DHT22;12379;49.820;8.648;2023-03-31T03:13:42;11.60;99.90
24250;DHT22;12379;49.820;8.648;2023-03-31T03:18:44;11.40;99.90
24250;DHT22;12379;49.820;8.648;2023-03-31T03:21:10;11.40;99.90
24250;DHT22;12379;49.820;8.648;2023-03-31T03:23:35;11.20;99.90
24250;DHT22;12379;49.820;8.648;2023-03-31T03:26:01;11.20;99.90
24250;DHT22;12379;49.820;8.648;2023-03-31T03:28:27;11.10;99.90
24250;DHT22;12379;49.820;8.648;2023-03-31T03:30:52;11.10;99.90
24250;DHT22;12379;49.820;8.648;2023-03-31T03:33:18;11.20;99.90
24250;DHT22;12379;49.820;8.648;2023-03-31T03:35:43;11.20;99.90
24250;DHT22;12379;49.820;8.648;2023-03-31T03:38:09;11.20;99.90
24250;DHT22;12379;49.820;8.648;2023-03-31T03:40:35;11.20;99.90
24250;DHT22;12379;49.820;8.648;2023-03-31T03:43:00;11.20;99.90
24250;DHT22;12379;49.820;8.648;2023-03-31T03:45:26;11.30;99.90
24250;DHT22;12379;49.820;8.648;2023-03-31T03:47:51;11.40;99.90
24250;DHT22;12379;49.820;8.648;2023-03-31T03:50:17;11.40;99.90
24250;DHT22;12379;49.820;8.648;2023-03-31T03:52:42;11.40;99.90
24250;DHT22;12379;49.820;8.648;2023-03-31T03:55:08;11.40;99.90
24250;DHT22;12379;49.820;8.648;2023-03-31T03:57:34;11.30;99.90
24250;DHT22;12379;49.820;8.648;2023-03-31T03:59:59;11.50;99.90
24250;DHT22;12379;49.820;8.648;2023-03-31T04:02:25;11.50;99.90
24250;DHT22;12379;49.820;8.648;2023-03-31T04:04:52;11.40;99.90
24250;DHT22;12379;49.820;8.648;2023-03-31T04:07:18;11.40;99.90
24250;DHT22;12379;49.820;8.648;2023-03-31T04:09:44;11.30;99.90
24250;DHT22;12379;49.820;8.648;2023-03-31T04:12:09;11.30;99.90
24250;DHT22;12379;49.820;8.648;2023-03-31T04:14:35;11.20;99.90
24250;DHT22;12379;49.820;8.648;2023-03-31T04:17:00;11.20;99.90
24250;DHT22;12379;49.820;8.648;2023-03-31T04:19:27;11.10;99.90
24250;DHT22;12379;49.820;8.648;2023-03-31T04:21:53;11.10;99.90
24250;DHT22;12379;49.820;8.648;2023-03-31T04:24:27;11.10;99.90
24250;DHT22;12379;49.820;8.648;2023-03-31T04:26:57;11.10;99.90
24250;DHT22;12379;49.820;8.648;2023-03-31T04:29:23;11.10;99.90
24250;DHT22;12379;49.820;8.648;2023-03-31T04:31:51;11.20;99.90
24250;DHT22;12379;49.820;8.648;2023-03-31T04:34:18;11.30;99.90
24250;DHT22;12379;49.820;8.648;2023-03-31T04:36:45;11.40;99.90
24250;DHT22;12379;49.820;8.648;2023-03-31T04:39:15;11.40;99.90
24250;DHT22;12379;49.820;8.648;2023-03-31T04:41:42;11.40;99.90
24250;DHT22;12379;49.820;8.648;2023-03-31T04:44:07;11.40;99.90
24250;DHT22;12379;49.820;8.648;2023-03-31T04:46:34;11.50;99.90
24250;DHT22;12379;49.820;8.648;2023-03-31T04:48:59;11.70;99.90
24250;DHT22;12379;49.820;8.648;2023-03-31T04:51:26;11.70;99.90
24250;DHT22;12379;49.820;8.648;2023-03-31T04:53:51;11.60;99.90
24250;DHT22;12379;49.820;8.648;2023-03-31T04:56:17;11.70;99.90
24250;DHT22;12379;49.820;8.648;2023-03-31T04:58:43;11.60;99.90
24250;DHT22;12379;49.820;8.648;2023-03-31T05:01:09;11.60;99.90
24250;DHT22;12379;49.820;8.648;2023-03-31T05:03:37;11.70;99.90
24250;DHT22;12379;49.820;8.648;2023-03-31T05:06:03;11.70;99.90
24250;DHT22;12379;49.820;8.648;2023-03-31T05:08:29;11.70;99.90
24250;DHT22;12379;49.820;8.648;2023-03-31T05:10:54;11.60;99.90
24250;DHT22;12379;49.820;8.648;2023-03-31T05:13:20;11.60;99.90
24250;DHT22;12379;49.820;8.648;2023-03-31T05:15:46;11.40;99.90
24250;DHT22;12379;49.820;8.648;2023-03-31T05:18:15;11.30;99.90
24250;DHT22;12379;49.820;8.648;2023-03-31T05:20:40;11.30;99.90
24250;DHT22;12379;49.820;8.648;2023-03-31T05:23:06;11.20;99.90
24250;DHT22;12379;49.820;8.648;2023-03-31T05:25:32;11.00;99.90
24250;DHT22;12379;49.820;8.648;2023-03-31T05:27:58;10.90;99.90
24250;DHT22;12379;49.820;8.648;2023-03-31T05:30:24;10.80;99.90
24250;DHT22;12379;49.820;8.648;2023-03-31T05:32:53;10.70;99.90
24250;DHT22;12379;49.820;8.648;2023-03-31T05:35:18;10.70;99.90
24250;DHT22;12379;49.820;8.648;2023-03-31T05:37:44;10.70;99.90
24250;DHT22;12379;49.820;8.648;2023-03-31T05:40:10;10.70;99.90
24250;DHT22;12379;49.820;8.648;2023-03-31T05:42:36;10.90;99.90
24250;DHT22;12379;49.820;8.648;2023-03-31T05:45:02;10.80;99.90
24250;DHT22;12379;49.820;8.648;2023-03-31T05:47:28;10.60;99.90
24250;DHT22;12379;49.820;8.648;2023-03-31T05:49:54;10.60;99.90
24250;DHT22;12379;49.820;8.648;2023-03-31T05:52:20;10.60;99.90
24250;DHT22;12379;49.820;8.648;2023-03-31T05:54:45;10.70;99.90
24250;DHT22;12379;49.820;8.648;2023-03-31T05:57:11;10.60;99.90
24250;DHT22;12379;49.820;8.648;2023-03-31T05:59:37;10.60;99.90
24250;DHT22;12379;49.820;8.648;2023-03-31T06:02:03;10.70;99.90
24250;DHT22;12379;49.820;8.648;2023-03-31T06:04:29;10.70;99.90
24250;DHT22;12379;49.820;8.648;2023-03-31T06:06:57;10.60;99.90
24250;DHT22;12379;49.820;8.648;2023-03-31T06:09:23;10.60;99.90
24250;DHT22;12379;49.820;8.648;2023-03-31T06:11:49;10.60;99.90
24250;DHT22;12379;49.820;8.648;2023-03-31T06:14:17;10.60;99.90
24250;DHT22;12379;49.820;8.648;2023-03-31T06:16:42;10.60;99.90
24250;DHT22;12379;49.820;8.648;2023-03-31T06:19:08;10.70;99.90
24250;DHT22;12379;49.820;8.648;2023-03-31T06:21:33;10.60;99.90
24250;DHT22;12379;49.820;8.648;2023-03-31T06:23:59;10.70;99.90
24250;DHT22;12379;49.820;8.648;2023-03-31T06:26:26;10.70;99.90
24250;DHT22;12379;49.820;8.648;2023-03-31T06:28:52;10.70;99.90
24250;DHT22;12379;49.820;8.648;2023-03-31T06:31:20;10.70;99.90
24250;DHT22;12379;49.820;8.648;2023-03-31T06:33:46;10.60;99.90
24250;DHT22;12379;49.820;8.648;2023-03-31T06:36:14;10.60;99.90
24250;DHT22;12379;49.820;8.648;2023-03-31T06:38:40;10.60;99.90
24250;DHT22;12379;49.820;8.648;2023-03-31T06:41:07;10.70;99.90
24250;DHT22;12379;49.820;8.648;2023-03-31T06:43:33;10.60;99.90
24250;DHT22;12379;49.820;8.648;2023-03-31T06:45:59;10.70;99.90
24250;DHT22;12379;49.820;8.648;2023-03-31T06:48:28;10.70;99.90
24250;DHT22;12379;49.820;8.648;2023-03-31T06:50:55;10.80;99.90
24250;DHT22;12379;49.820;8.648;2023-03-31T06:53:23;10.80;99.90
24250;DHT22;12379;49.820;8.648;2023-03-31T06:55:48;10.90;99.90
24250;DHT22;12379;49.820;8.648;2023-03-31T06:58:14;10.90;99.90
24250;DHT22;12379;49.820;8.648;2023-03-31T07:00:40;11.00;99.90
24250;DHT22;12379;49.820;8.648;2023-03-31T07:03:05;11.10;99.90
24250;DHT22;12379;49.820;8.648;2023-03-31T07:05:33;11.20;99.90
24250;DHT22;12379;49.820;8.648;2023-03-31T07:07:59;11.30;99.90
24250;DHT22;12379;49.820;8.648;2023-03-31T07:10:27;11.30;99.90
24250;DHT22;12379;49.820;8.648;2023-03-31T07:12:53;11.30;99.90
24250;DHT22;12379;49.820;8.648;2023-03-31T07:15:19;11.30;99.90
24250;DHT22;12379;49.820;8.648;2023-03-31T07:17:45;11.40;99.90
24250;DHT22;12379;49.820;8.648;2023-03-31T07:20:16;11.40;99.90
24250;DHT22;12379;49.820;8.648;2023-03-31T07:22:47;11.40;99.90
24250;DHT22;12379;49.820;8.648;2023-03-31T07:25:15;11.50;99.90
24250;DHT22;12379;49.820;8.648;2023-03-31T07:27:41;11.50;99.90
24250;DHT22;12379;49.820;8.648;2023-03-31T07:30:11;11.40;99.90
24250;DHT22;12379;49.820;8.648;2023-03-31T07:32:37;11.20;99.90
24250;DHT22;12379;49.820;8.648;2023-03-31T07:35:06;11.10;99.90
24250;DHT22;12379;49.820;8.648;2023-03-31T07:37:39;11.00;99.90
24250;DHT22;12379;49.820;8.648;2023-03-31T07:40:06;11.10;99.90
24250;DHT22;12379;49.820;8.648;2023-03-31T07:42:33;11.10;99.90
24250;DHT22;12379;49.820;8.648;2023-03-31T07:44:58;10.90;99.90
24250;DHT22;12379;49.820;8.648;2023-03-31T07:47:24;10.90;99.90
24250;DHT22;12379;49.820;8.648;2023-03-31T07:49:50;10.90;99.90
24250;DHT22;12379;49.820;8.648;2023-03-31T07:52:16;10.80;99.90
24250;DHT22;12379;49.820;8.648;2023-03-31T07:54:42;10.70;99.90
24250;DHT22;12379;49.820;8.648;2023-03-31T07:57:08;10.70;99.90
24250;DHT22;12379;49.820;8.648;2023-03-31T07:59:34;10.80;99.90
24250;DHT22;12379;49.820;8.648;2023-03-31T08:02:00;10.70;99.90
24250;DHT22;12379;49.820;8.648;2023-03-31T08:04:25;10.70;99.90
24250;DHT22;12379;49.820;8.648;2023-03-31T08:06:51;10.70;99.90
24250;DHT22;12379;49.820;8.648;2023-03-31T08:09:17;10.70;99.90
24250;DHT22;12379;49.820;8.648;2023-03-31T08:11:43;10.80;99.90
24250;DHT22;12379;49.820;8.648;2023-03-31T08:14:09;10.80;99.90
24250;DHT22;12379;49.820;8.648;2023-03-31T08:16:35;10.90;99.90
24250;DHT22;12379;49.820;8.648;2023-03-31T08:19:01;11.10;99.90
24250;DHT22;12379;49.820;8.648;2023-03-31T08:21:29;11.10;99.90
24250;DHT22;12379;49.820;8.648;2023-03-31T08:23:55;11.40;99.90
24250;DHT22;12379;49.820;8.648;2023-03-31T08:26:21;11.60;99.90
24250;DHT22;12379;49.820;8.648;2023-03-31T08:28:49;11.50;99.90
24250;DHT22;12379;49.820;8.648;2023-03-31T08:31:15;11.40;99.90
24250;DHT22;12379;49.820;8.648;2023-03-31T08:33:41;11.20;99.90
24250;DHT22;12379;49.820;8.648;2023-03-31T08:36:08;11.20;99.90
24250;DHT22;12379;49.820;8.648;2023-03-31T08:38:39;11.10;99.90
24250;DHT22;12379;49.820;8.648;2023-03-31T08:41:27;11.20;99.90
24250;DHT22;12379;49.820;8.648;2023-03-31T08:43:57;11.10;99.90
24250;DHT22;12379;49.820;8.648;2023-03-31T08:46:27;10.90;99.90
24250;DHT22;12379;49.820;8.648;2023-03-31T08:48:55;10.90;99.90
24250;DHT22;12379;49.820;8.648;2023-03-31T08:51:34;10.90;99.90
24250;DHT22;12379;49.820;8.648;2023-03-31T08:54:02;10.90;99.90
24250;DHT22;12379;49.820;8.648;2023-03-31T08:56:32;10.90;99.90
24250;DHT22;12379;49.820;8.648;2023-03-31T08:58:58;11.10;99.90
24250;DHT22;12379;49.820;8.648;2023-03-31T09:01:41;11.20;99.90
24250;DHT22;12379;49.820;8.648;2023-03-31T09:06:55;11.60;99.90
24250;DHT22;12379;49.820;8.648;2023-03-31T09:12:22;12.10;99.90
24250;DHT22;12379;49.820;8.648;2023-03-31T09:15:00;12.00;99.90
24250;DHT22;12379;49.820;8.648;2023-03-31T09:17:33;11.60;99.90
24250;DHT22;12379;49.820;8.648;2023-03-31T09:20:14;11.50;99.90
24250;DHT22;12379;49.820;8.648;2023-03-31T09:22:45;11.30;99.90
24250;DHT22;12379;49.820;8.648;2023-03-31T09:25:25;11.50;99.90
24250;DHT22;12379;49.820;8.648;2023-03-31T09:27:53;11.90;99.90
24250;DHT22;12379;49.820;8.648;2023-03-31T09:30:24;12.30;99.90
24250;DHT22;12379;49.820;8.648;2023-03-31T09:33:13;12.10;99.90
24250;DHT22;12379;49.820;8.648;2023-03-31T09:35:40;12.10;99.90
24250;DHT22;12379;49.820;8.648;2023-03-31T09:38:05;12.10;99.90
24250;DHT22;12379;49.820;8.648;2023-03-31T09:40:31;12.20;99.90
24250;DHT22;12379;49.820;8.648;2023-03-31T09:43:04;12.30;99.90
24250;DHT22;12379;49.820;8.648;2023-03-31T09:45:31;12.10;99.90
24250;DHT22;12379;49.820;8.648;2023-03-31T09:48:01;12.00;99.90
24250;DHT22;12379;49.820;8.648;2023-03-31T09:50:29;11.80;99.90
24250;DHT22;12379;49.820;8.648;2023-03-31T09:52:56;11.60;99.90
24250;DHT22;12379;49.820;8.648;2023-03-31T09:55:40;11.60;99.90
24250;DHT22;12379;49.820;8.648;2023-03-31T09:58:12;11.50;99.90
24250;DHT22;12379;49.820;8.648;2023-03-31T10:00:54;11.40;99.90
24250;DHT22;12379;49.820;8.648;2023-03-31T10:03:21;11.30;99.90
24250;DHT22;12379;49.820;8.648;2023-03-31T10:05:54;11.20;99.90
24250;DHT22;12379;49.820;8.648;2023-03-31T10:08:26;11.30;99.90
24250;DHT22;12379;49.820;8.648;2023-03-31T10:13:47;11.60;99.90
24250;DHT22;12379;49.820;8.648;2023-03-31T10:18:55;11.90;99.90
24250;DHT22;12379;49.820;8.648;2023-03-31T10:21:36;12.10;99.90
24250;DHT22;12379;49.820;8.648;2023-03-31T10:24:08;12.20;99.90
24250;DHT22;12379;49.820;8.648;2023-03-31T10:26:33;12.20;99.90
24250;DHT22;12379;49.820;8.648;2023-03-31T10:28:59;12.40;99.90
24250;DHT22;12379;49.820;8.648;2023-03-31T10:31:26;12.60;99.90
24250;DHT22;12379;49.820;8.648;2023-03-31T10:33:58;12.60;99.90
24250;DHT22;12379;49.820;8.648;2023-03-31T10:36:28;12.60;99.90
24250;DHT22;12379;49.820;8.648;2023-03-31T10:38:54;12.60;99.90
24250;DHT22;12379;49.820;8.648;2023-03-31T10:41:26;12.70;99.90
24250;DHT22;12379;49.820;8.648;2023-03-31T10:43:55;12.80;99.90
24250;DHT22;12379;49.820;8.648;2023-03-31T10:49:14;12.80;99.90
24250;DHT22;12379;49.820;8.648;2023-03-31T10:51:48;12.90;99.90
24250;DHT22;12379;49.820;8.648;2023-03-31T10:54:14;13.10;99.90
24250;DHT22;12379;49.820;8.648;2023-03-31T10:56:48;13.00;99.90
24250;DHT22;12379;49.820;8.648;2023-03-31T11:02:34;13.50;99.90
24250;DHT22;12379;49.820;8.648;2023-03-31T11:05:19;13.90;99.90
24250;DHT22;12379;49.820;8.648;2023-03-31T11:10:53;13.90;99.90
24250;DHT22;12379;49.820;8.648;2023-03-31T11:13:28;13.80;99.90
24250;DHT22;12379;49.820;8.648;2023-03-31T11:16:26;13.80;99.90
24250;DHT22;12379;49.820;8.648;2023-03-31T11:40:44;14.60;99.90
24250;DHT22;12379;49.820;8.648;2023-03-31T11:43:28;14.60;99.90
24250;DHT22;12379;49.820;8.648;2023-03-31T11:46:19;14.60;99.90
24250;DHT22;12379;49.820;8.648;2023-03-31T11:48:56;14.40;99.90
24250;DHT22;12379;49.820;8.648;2023-03-31T11:51:30;14.40;99.90
24250;DHT22;12379;49.820;8.648;2023-03-31T11:54:02;14.30;99.90
24250;DHT22;12379;49.820;8.648;2023-03-31T11:56:38;14.30;99.90
24250;DHT22;12379;49.820;8.648;2023-03-31T11:59:05;14.30;99.90
24250;DHT22;12379;49.820;8.648;2023-03-31T12:01:49;14.30;99.90
24250;DHT22;12379;49.820;8.648;2023-03-31T12:04:32;14.00;99.90
24250;DHT22;12379;49.820;8.648;2023-03-31T12:07:07;13.90;99.90
24250;DHT22;12379;49.820;8.648;2023-03-31T12:12:41;13.50;99.90
24250;DHT22;12379;49.820;8.648;2023-03-31T12:15:38;13.10;99.90
24250;DHT22;12379;49.820;8.648;2023-03-31T12:18:20;12.80;99.90
24250;DHT22;12379;49.820;8.648;2023-03-31T12:23:22;12.90;99.90
24250;DHT22;12379;49.820;8.648;2023-03-31T12:28:35;12.80;99.90
24250;DHT22;12379;49.820;8.648;2023-03-31T12:31:04;12.80;99.90
24250;DHT22;12379;49.820;8.648;2023-03-31T12:33:41;12.60;99.90
24250;DHT22;12379;49.820;8.648;2023-03-31T12:36:28;12.50;99.90
24250;DHT22;12379;49.820;8.648;2023-03-31T12:45:12;11.90;99.90
24250;DHT22;12379;49.820;8.648;2023-03-31T12:56:03;11.60;99.90
24250;DHT22;12379;49.820;8.648;2023-03-31T13:01:17;11.90;99.90
24250;DHT22;12379;49.820;8.648;2023-03-31T13:08:56;12.50;99.90
24250;DHT22;12379;49.820;8.648;2023-03-31T13:14:38;13.10;99.90
24250;DHT22;12379;49.820;8.648;2023-03-31T13:17:25;13.30;99.90
24250;DHT22;12379;49.820;8.648;2023-03-31T13:19:53;13.50;99.90
24250;DHT22;12379;49.820;8.648;2023-03-31T13:27:51;13.50;99.90
24250;DHT22;12379;49.820;8.648;2023-03-31T13:31:00;13.30;99.90
24250;DHT22;12379;49.820;8.648;2023-03-31T13:36:22;11.70;99.90
24250;DHT22;12379;49.820;8.648;2023-03-31T13:42:07;10.70;99.90
24250;DHT22;12379;49.820;8.648;2023-03-31T13:45:45;10.70;99.90
24250;DHT22;12379;49.820;8.648;2023-03-31T13:50:56;10.90;99.90
24250;DHT22;12379;49.820;8.648;2023-03-31T13:53:44;11.20;99.90
24250;DHT22;12379;49.820;8.648;2023-03-31T13:56:38;11.40;99.90
24250;DHT22;12379;49.820;8.648;2023-03-31T14:07:48;12.00;99.90
24250;DHT22;12379;49.820;8.648;2023-03-31T14:10:36;11.90;99.90
24250;DHT22;12379;49.820;8.648;2023-03-31T14:13:18;11.70;99.90
24250;DHT22;12379;49.820;8.648;2023-03-31T14:15:53;11.80;99.90
24250;DHT22;12379;49.820;8.648;2023-03-31T14:18:31;12.00;99.90
24250;DHT22;12379;49.820;8.648;2023-03-31T14:21:28;12.20;99.90
24250;DHT22;12379;49.820;8.648;2023-03-31T14:26:46;12.50;99.90
24250;DHT22;12379;49.820;8.648;2023-03-31T14:29:39;12.30;99.90
24250;DHT22;12379;49.820;8.648;2023-03-31T14:32:30;12.10;99.90
24250;DHT22;12379;49.820;8.648;2023-03-31T14:35:30;12.10;99.90
24250;DHT22;12379;49.820;8.648;2023-03-31T14:38:07;12.60;99.90
24250;DHT22;12379;49.820;8.648;2023-03-31T14:40:43;13.10;99.90
24250;DHT22;12379;49.820;8.648;2023-03-31T14:43:21;13.40;99.90
24250;DHT22;12379;49.820;8.648;2023-03-31T14:46:01;13.20;99.90
24250;DHT22;12379;49.820;8.648;2023-03-31T14:48:29;13.10;99.90
24250;DHT22;12379;49.820;8.648;2023-03-31T14:50:57;13.10;99.90
24250;DHT22;12379;49.820;8.648;2023-03-31T14:53:25;12.90;99.90
24250;DHT22;12379;49.820;8.648;2023-03-31T14:56:03;12.60;99.90
24250;DHT22;12379;49.820;8.648;2023-03-31T14:58:35;12.50;99.90
24250;DHT22;12379;49.820;8.648;2023-03-31T15:01:04;12.60;99.90
24250;DHT22;12379;49.820;8.648;2023-03-31T15:03:33;12.70;99.90
24250;DHT22;12379;49.820;8.648;2023-03-31T15:06:01;12.70;99.90
24250;DHT22;12379;49.820;8.648;2023-03-31T15:08:28;12.80;99.90
24250;DHT22;12379;49.820;8.648;2023-03-31T15:10:58;12.70;99.90
24250;DHT22;12379;49.820;8.648;2023-03-31T15:13:44;12.60;99.90
24250;DHT22;12379;49.820;8.648;2023-03-31T15:19:03;11.50;99.90
24250;DHT22;12379;49.820;8.648;2023-03-31T15:21:35;11.30;99.90
24250;DHT22;12379;49.820;8.648;2023-03-31T15:24:03;11.30;99.90
24250;DHT22;12379;49.820;8.648;2023-03-31T15:26:38;11.20;99.90
24250;DHT22;12379;49.820;8.648;2023-03-31T15:32:07;11.10;99.90
24250;DHT22;12379;49.820;8.648;2023-03-31T15:34:36;11.20;99.90
24250;DHT22;12379;49.820;8.648;2023-03-31T15:37:06;11.30;99.90
24250;DHT22;12379;49.820;8.648;2023-03-31T15:39:32;11.60;99.90
24250;DHT22;12379;49.820;8.648;2023-03-31T15:42:00;11.90;99.90
24250;DHT22;12379;49.820;8.648;2023-03-31T15:44:44;11.90;99.90
24250;DHT22;12379;49.820;8.648;2023-03-31T15:47:28;12.00;99.90
24250;DHT22;12379;49.820;8.648;2023-03-31T15:50:43;12.40;99.90
24250;DHT22;12379;49.820;8.648;2023-03-31T15:52:49;12.40;99.90
24250;DHT22;12379;49.820;8.648;2023-03-31T15:55:29;12.40;99.90
24250;DHT22;12379;49.820;8.648;2023-03-31T15:57:57;12.50;99.90
24250;DHT22;12379;49.820;8.648;2023-03-31T16:03:10;12.50;99.90
24250;DHT22;12379;49.820;8.648;2023-03-31T16:05:54;12.40;99.90
24250;DHT22;12379;49.820;8.648;2023-03-31T16:08:45;12.30;99.90
24250;DHT22;12379;49.820;8.648;2023-03-31T16:11:19;12.10;99.90
24250;DHT22;12379;49.820;8.648;2023-03-31T16:13:55;12.10;99.90
24250;DHT22;12379;49.820;8.648;2023-03-31T16:16:26;12.10;99.90
24250;DHT22;12379;49.820;8.648;2023-03-31T16:19:04;12.10;99.90
24250;DHT22;12379;49.820;8.648;2023-03-31T16:21:41;12.20;99.90
24250;DHT22;12379;49.820;8.648;2023-03-31T16:24:08;12.40;99.90
24250;DHT22;12379;49.820;8.648;2023-03-31T16:26:35;12.50;99.90
24250;DHT22;12379;49.820;8.648;2023-03-31T16:29:01;12.40;99.90
24250;DHT22;12379;49.820;8.648;2023-03-31T16:31:38;12.50;99.90
24250;DHT22;12379;49.820;8.648;2023-03-31T16:34:13;12.40;99.90
24250;DHT22;12379;49.820;8.648;2023-03-31T16:36:39;12.40;99.90
24250;DHT22;12379;49.820;8.648;2023-03-31T16:39:05;12.30;99.90
24250;DHT22;12379;49.820;8.648;2023-03-31T16:41:32;12.30;99.90
24250;DHT22;12379;49.820;8.648;2023-03-31T16:43:58;12.30;99.90
24250;DHT22;12379;49.820;8.648;2023-03-31T16:46:24;12.30;99.90
24250;DHT22;12379;49.820;8.648;2023-03-31T16:48:51;12.20;99.90
24250;DHT22;12379;49.820;8.648;2023-03-31T16:51:17;12.20;99.90
24250;DHT22;12379;49.820;8.648;2023-03-31T16:53:44;12.20;99.90
24250;DHT22;12379;49.820;8.648;2023-03-31T16:56:11;12.10;99.90
24250;DHT22;12379;49.820;8.648;2023-03-31T16:58:38;12.00;99.90
24250;DHT22;12379;49.820;8.648;2023-03-31T17:01:04;11.90;99.90
24250;DHT22;12379;49.820;8.648;2023-03-31T17:03:33;11.70;99.90
24250;DHT22;12379;49.820;8.648;2023-03-31T17:06:05;11.80;99.90
24250;DHT22;12379;49.820;8.648;2023-03-31T17:08:31;11.80;99.90
24250;DHT22;12379;49.820;8.648;2023-03-31T17:11:09;11.80;99.90
24250;DHT22;12379;49.820;8.648;2023-03-31T17:13:37;11.80;99.90
24250;DHT22;12379;49.820;8.648;2023-03-31T17:16:03;11.80;99.90
24250;DHT22;12379;49.820;8.648;2023-03-31T17:18:29;11.80;99.90
24250;DHT22;12379;49.820;8.648;2023-03-31T17:21:04;11.80;99.90
24250;DHT22;12379;49.820;8.648;2023-03-31T17:23:30;11.90;99.90
24250;DHT22;12379;49.820;8.648;2023-03-31T17:25:56;11.90;99.90
24250;DHT22;12379;49.820;8.648;2023-03-31T17:28:25;11.80;99.90
24250;DHT22;12379;49.820;8.648;2023-03-31T17:30:51;11.90;99.90
24250;DHT22;12379;49.820;8.648;2023-03-31T17:33:17;11.90;99.90
24250;DHT22;12379;49.820;8.648;2023-03-31T17:35:42;11.90;99.90
24250;DHT22;12379;49.820;8.648;2023-03-31T17:38:09;11.90;99.90
24250;DHT22;12379;49.820;8.648;2023-03-31T17:40:37;12.00;99.90
24250;DHT22;12379;49.820;8.648;2023-03-31T17:43:03;12.00;99.90
24250;DHT22;12379;49.820;8.648;2023-03-31T17:45:29;11.90;99.90
24250;DHT22;12379;49.820;8.648;2023-03-31T17:47:56;11.90;99.90
24250;DHT22;12379;49.820;8.648;2023-03-31T17:50:22;12.00;99.90
24250;DHT22;12379;49.820;8.648;2023-03-31T17:52:48;12.00;99.90
24250;DHT22;12379;49.820;8.648;2023-03-31T17:55:15;12.00;99.90
24250;DHT22;12379;49.820;8.648;2023-03-31T17:57:41;11.90;99.90
24250;DHT22;12379;49.820;8.648;2023-03-31T18:00:08;11.90;99.90
24250;DHT22;12379;49.820;8.648;2023-03-31T18:02:38;11.90;99.90
24250;DHT22;12379;49.820;8.648;2023-03-31T18:05:05;11.80;99.90
24250;DHT22;12379;49.820;8.648;2023-03-31T18:07:31;11.80;99.90
24250;DHT22;12379;49.820;8.648;2023-03-31T18:09:57;11.60;99.90
24250;DHT22;12379;49.820;8.648;2023-03-31T18:12:23;11.70;99.90
24250;DHT22;12379;49.820;8.648;2023-03-31T18:14:49;11.60;99.90
24250;DHT22;12379;49.820;8.648;2023-03-31T18:17:15;11.50;99.90
24250;DHT22;12379;49.820;8.648;2023-03-31T18:19:41;11.40;99.90